sensor_id;sensor_type;location;lat;lon;timestamp;P1;durP1;ratioP1;P2;durP2;ratioP2
51066;SDS011;37112;45.892;-123.962;2023-03-03T00:02:02;11.80;;;2.60;;
51066;SDS011;37112;45.892;-123.962;2023-03-03T00:04:16;10.80;;;2.90;;
51066;SDS011;37112;45.892;-123.962;2023-03-03T00:06:30;11.10;;;2.90;;
51066;SDS011;37112;45.892;-123.962;2023-03-03T00:08:43;17.40;;;3.00;;
51066;SDS011;37112;45.892;-123.962;2023-03-03T00:10:57;31.90;;;4.20;;
51066;SDS011;37112;45.892;-123.962;2023-03-03T00:13:17;23.50;;;4.40;;
51066;SDS011;37112;45.892;-123.962;2023-03-03T00:15:31;27.40;;;4.30;;
51066;SDS011;37112;45.892;-123.962;2023-03-03T00:17:45;18.40;;;4.50;;
51066;SDS011;37112;45.892;-123.962;2023-03-03T00:19:58;19.10;;;4.00;;
51066;SDS011;37112;45.892;-123.962;2023-03-03T00:22:34;25.20;;;3.70;;
51066;SDS011;37112;45.892;-123.962;2023-03-03T00:24:48;38.50;;;7.70;;
51066;SDS011;37112;45.892;-123.962;2023-03-03T00:27:09;24.30;;;4.80;;
51066;SDS011;37112;45.892;-123.962;2023-03-03T00:29:34;19.30;;;3.50;;
51066;SDS011;37112;45.892;-123.962;2023-03-03T00:31:49;19.50;;;4.10;;
51066;SDS011;37112;45.892;-123.962;2023-03-03T00:34:09;41.50;;;7.10;;
51066;SDS011;37112;45.892;-123.962;2023-03-03T00:36:35;32.80;;;5.00;;
51066;SDS011;37112;45.892;-123.962;2023-03-03T00:38:50;24.50;;;4.40;;
51066;SDS011;37112;45.892;-123.962;2023-03-03T00:41:06;20.60;;;3.80;;
51066;SDS011;37112;45.892;-123.962;2023-03-03T00:43:32;37.00;;;4.60;;
51066;SDS011;37112;45.892;-123.962;2023-03-03T00:45:46;21.70;;;3.80;;
51066;SDS011;37112;45.892;-123.962;2023-03-03T00:48:02;17.80;;;2.90;;
51066;SDS011;37112;45.892;-123.962;2023-03-03T00:50:28;32.00;;;4.80;;
51066;SDS011;37112;45.892;-123.962;2023-03-03T00:52:45;16.70;;;3.50;;
51066;SDS011;37112;45.892;-123.962;2023-03-03T00:55:13;26.90;;;4.60;;
51066;SDS011;37112;45.892;-123.962;2023-03-03T00:57:26;20.00;;;2.70;;
51066;SDS011;37112;45.892;-123.962;2023-03-03T00:59:42;10.40;;;2.70;;
51066;SDS011;37112;45.892;-123.962;2023-03-03T01:01:56;12.60;;;2.20;;
51066;SDS011;37112;45.892;-123.962;2023-03-03T01:04:09;23.10;;;2.70;;
51066;SDS011;37112;45.892;-123.962;2023-03-03T01:06:22;19.50;;;3.20;;
51066;SDS011;37112;45.892;-123.962;2023-03-03T01:08:35;22.20;;;3.30;;
51066;SDS011;37112;45.892;-123.962;2023-03-03T01:10:49;18.70;;;3.40;;
51066;SDS011;37112;45.892;-123.962;2023-03-03T01:13:05;24.00;;;4.00;;
51066;SDS011;37112;45.892;-123.962;2023-03-03T01:15:19;23.90;;;4.70;;
51066;SDS011;37112;45.892;-123.962;2023-03-03T01:17:34;12.60;;;2.70;;
51066;SDS011;37112;45.892;-123.962;2023-03-03T01:19:48;20.90;;;3.40;;
51066;SDS011;37112;45.892;-123.962;2023-03-03T01:22:01;15.60;;;3.30;;
51066;SDS011;37112;45.892;-123.962;2023-03-03T01:24:14;26.80;;;5.30;;
51066;SDS011;37112;45.892;-123.962;2023-03-03T01:26:27;34.30;;;5.60;;
51066;SDS011;37112;45.892;-123.962;2023-03-03T01:28:40;26.00;;;4.40;;
51066;SDS011;37112;45.892;-123.962;2023-03-03T01:30:56;21.60;;;3.60;;
51066;SDS011;37112;45.892;-123.962;2023-03-03T01:33:12;23.00;;;3.90;;
51066;SDS011;37112;45.892;-123.962;2023-03-03T01:35:25;22.80;;;3.50;;
51066;SDS011;37112;45.892;-123.962;2023-03-03T01:37:39;27.60;;;4.70;;
51066;SDS011;37112;45.892;-123.962;2023-03-03T01:39:52;15.00;;;2.40;;
51066;SDS011;37112;45.892;-123.962;2023-03-03T01:42:06;21.70;;;3.20;;
51066;SDS011;37112;45.892;-123.962;2023-03-03T01:44:20;23.60;;;4.80;;
51066;SDS011;37112;45.892;-123.962;2023-03-03T01:46:35;17.10;;;4.20;;
51066;SDS011;37112;45.892;-123.962;2023-03-03T01:49:04;13.50;;;3.50;;
51066;SDS011;37112;45.892;-123.962;2023-03-03T01:51:22;22.10;;;4.30;;
51066;SDS011;37112;45.892;-123.962;2023-03-03T01:53:38;19.30;;;3.30;;
51066;SDS011;37112;45.892;-123.962;2023-03-03T01:55:55;28.90;;;4.70;;
51066;SDS011;37112;45.892;-123.962;2023-03-03T01:58:11;14.90;;;3.40;;
51066;SDS011;37112;45.892;-123.962;2023-03-03T02:00:28;12.40;;;3.70;;
51066;SDS011;37112;45.892;-123.962;2023-03-03T02:02:44;19.50;;;3.80;;
51066;SDS011;37112;45.892;-123.962;2023-03-03T02:04:58;18.00;;;2.60;;
51066;SDS011;37112;45.892;-123.962;2023-03-03T02:07:11;18.80;;;3.70;;
51066;SDS011;37112;45.892;-123.962;2023-03-03T02:09:29;21.60;;;3.30;;
51066;SDS011;37112;45.892;-123.962;2023-03-03T02:11:48;17.50;;;4.00;;
51066;SDS011;37112;45.892;-123.962;2023-03-03T02:14:06;13.30;;;3.20;;
51066;SDS011;37112;45.892;-123.962;2023-03-03T02:16:21;32.80;;;5.00;;
51066;SDS011;37112;45.892;-123.962;2023-03-03T02:18:34;22.20;;;3.50;;
51066;SDS011;37112;45.892;-123.962;2023-03-03T02:20:51;19.80;;;3.50;;
51066;SDS011;37112;45.892;-123.962;2023-03-03T02:23:12;18.30;;;3.60;;
51066;SDS011;37112;45.892;-123.962;2023-03-03T02:25:32;23.40;;;4.20;;
51066;SDS011;37112;45.892;-123.962;2023-03-03T02:27:52;13.70;;;3.00;;
51066;SDS011;37112;45.892;-123.962;2023-03-03T02:30:10;18.40;;;3.90;;
51066;SDS011;37112;45.892;-123.962;2023-03-03T02:32:27;28.10;;;3.40;;
51066;SDS011;37112;45.892;-123.962;2023-03-03T02:34:48;18.00;;;3.50;;
51066;SDS011;37112;45.892;-123.962;2023-03-03T02:37:02;25.40;;;5.30;;
51066;SDS011;37112;45.892;-123.962;2023-03-03T02:39:16;13.00;;;2.60;;
51066;SDS011;37112;45.892;-123.962;2023-03-03T02:41:34;25.50;;;4.60;;
51066;SDS011;37112;45.892;-123.962;2023-03-03T02:43:52;25.80;;;5.40;;
51066;SDS011;37112;45.892;-123.962;2023-03-03T02:46:09;19.30;;;3.40;;
51066;SDS011;37112;45.892;-123.962;2023-03-03T02:48:23;35.30;;;5.70;;
51066;SDS011;37112;45.892;-123.962;2023-03-03T02:50:37;22.70;;;4.30;;
51066;SDS011;37112;45.892;-123.962;2023-03-03T02:52:51;28.20;;;3.20;;
51066;SDS011;37112;45.892;-123.962;2023-03-03T02:55:06;8.10;;;2.50;;
51066;SDS011;37112;45.892;-123.962;2023-03-03T02:57:19;12.90;;;3.40;;
51066;SDS011;37112;45.892;-123.962;2023-03-03T02:59:33;13.40;;;2.90;;
51066;SDS011;37112;45.892;-123.962;2023-03-03T03:01:50;12.70;;;3.80;;
51066;SDS011;37112;45.892;-123.962;2023-03-03T03:04:05;12.20;;;2.70;;
51066;SDS011;37112;45.892;-123.962;2023-03-03T03:06:22;24.20;;;2.40;;
51066;SDS011;37112;45.892;-123.962;2023-03-03T03:08:35;36.70;;;6.30;;
51066;SDS011;37112;45.892;-123.962;2023-03-03T03:10:48;35.20;;;5.90;;
51066;SDS011;37112;45.892;-123.962;2023-03-03T03:13:03;23.20;;;3.90;;
51066;SDS011;37112;45.892;-123.962;2023-03-03T03:15:16;21.20;;;3.20;;
51066;SDS011;37112;45.892;-123.962;2023-03-03T03:17:30;18.60;;;3.60;;
51066;SDS011;37112;45.892;-123.962;2023-03-03T03:19:44;19.20;;;4.00;;
51066;SDS011;37112;45.892;-123.962;2023-03-03T03:21:57;14.40;;;3.80;;
51066;SDS011;37112;45.892;-123.962;2023-03-03T03:24:12;23.50;;;3.60;;
51066;SDS011;37112;45.892;-123.962;2023-03-03T03:26:31;9.80;;;2.30;;
51066;SDS011;37112;45.892;-123.962;2023-03-03T03:28:44;11.50;;;2.90;;
51066;SDS011;37112;45.892;-123.962;2023-03-03T03:30:58;8.90;;;2.50;;
51066;SDS011;37112;45.892;-123.962;2023-03-03T03:33:12;12.50;;;2.10;;
51066;SDS011;37112;45.892;-123.962;2023-03-03T03:35:26;7.90;;;2.10;;
51066;SDS011;37112;45.892;-123.962;2023-03-03T03:37:40;13.30;;;1.80;;
51066;SDS011;37112;45.892;-123.962;2023-03-03T03:39:53;12.00;;;2.70;;
51066;SDS011;37112;45.892;-123.962;2023-03-03T03:42:10;9.20;;;1.90;;
51066;SDS011;37112;45.892;-123.962;2023-03-03T03:44:23;9.90;;;2.40;;
51066;SDS011;37112;45.892;-123.962;2023-03-03T03:46:36;9.30;;;1.80;;
51066;SDS011;37112;45.892;-123.962;2023-03-03T03:48:49;6.30;;;1.40;;
51066;SDS011;37112;45.892;-123.962;2023-03-03T03:51:04;13.10;;;1.70;;
51066;SDS011;37112;45.892;-123.962;2023-03-03T03:53:19;12.70;;;2.20;;
51066;SDS011;37112;45.892;-123.962;2023-03-03T03:55:32;11.90;;;3.20;;
51066;SDS011;37112;45.892;-123.962;2023-03-03T03:57:45;8.50;;;2.50;;
51066;SDS011;37112;45.892;-123.962;2023-03-03T03:59:58;8.20;;;2.60;;
51066;SDS011;37112;45.892;-123.962;2023-03-03T04:02:19;11.30;;;3.50;;
51066;SDS011;37112;45.892;-123.962;2023-03-03T04:04:32;8.30;;;2.50;;
51066;SDS011;37112;45.892;-123.962;2023-03-03T04:06:45;8.80;;;1.40;;
51066;SDS011;37112;45.892;-123.962;2023-03-03T04:08:59;6.60;;;1.70;;
51066;SDS011;37112;45.892;-123.962;2023-03-03T04:11:13;10.30;;;3.50;;
51066;SDS011;37112;45.892;-123.962;2023-03-03T04:13:26;47.60;;;12.50;;
51066;SDS011;37112;45.892;-123.962;2023-03-03T04:15:43;44.70;;;8.70;;
51066;SDS011;37112;45.892;-123.962;2023-03-03T04:17:57;33.10;;;5.80;;
51066;SDS011;37112;45.892;-123.962;2023-03-03T04:20:12;49.80;;;10.20;;
51066;SDS011;37112;45.892;-123.962;2023-03-03T04:22:27;42.40;;;7.10;;
51066;SDS011;37112;45.892;-123.962;2023-03-03T04:24:42;29.90;;;5.80;;
51066;SDS011;37112;45.892;-123.962;2023-03-03T04:26:56;26.40;;;6.00;;
51066;SDS011;37112;45.892;-123.962;2023-03-03T04:29:09;33.70;;;7.50;;
51066;SDS011;37112;45.892;-123.962;2023-03-03T04:31:23;30.90;;;6.70;;
51066;SDS011;37112;45.892;-123.962;2023-03-03T04:33:38;41.00;;;7.70;;
51066;SDS011;37112;45.892;-123.962;2023-03-03T04:35:51;32.90;;;7.50;;
51066;SDS011;37112;45.892;-123.962;2023-03-03T04:38:05;24.10;;;3.80;;
51066;SDS011;37112;45.892;-123.962;2023-03-03T04:40:19;36.50;;;6.40;;
51066;SDS011;37112;45.892;-123.962;2023-03-03T04:42:33;40.70;;;6.50;;
51066;SDS011;37112;45.892;-123.962;2023-03-03T04:44:47;21.80;;;5.10;;
51066;SDS011;37112;45.892;-123.962;2023-03-03T04:47:00;36.20;;;6.50;;
51066;SDS011;37112;45.892;-123.962;2023-03-03T04:49:14;39.40;;;8.20;;
51066;SDS011;37112;45.892;-123.962;2023-03-03T04:51:28;40.30;;;8.10;;
51066;SDS011;37112;45.892;-123.962;2023-03-03T04:53:43;35.80;;;7.10;;
51066;SDS011;37112;45.892;-123.962;2023-03-03T04:55:57;36.00;;;6.30;;
51066;SDS011;37112;45.892;-123.962;2023-03-03T04:58:12;40.20;;;8.40;;
51066;SDS011;37112;45.892;-123.962;2023-03-03T05:00:26;39.90;;;6.40;;
51066;SDS011;37112;45.892;-123.962;2023-03-03T05:02:40;30.30;;;6.40;;
51066;SDS011;37112;45.892;-123.962;2023-03-03T05:04:54;31.30;;;5.90;;
51066;SDS011;37112;45.892;-123.962;2023-03-03T05:07:07;33.20;;;5.70;;
51066;SDS011;37112;45.892;-123.962;2023-03-03T05:09:21;22.20;;;5.00;;
51066;SDS011;37112;45.892;-123.962;2023-03-03T05:11:35;41.50;;;7.50;;
51066;SDS011;37112;45.892;-123.962;2023-03-03T05:13:49;24.40;;;4.30;;
51066;SDS011;37112;45.892;-123.962;2023-03-03T05:16:03;40.30;;;4.20;;
51066;SDS011;37112;45.892;-123.962;2023-03-03T05:18:17;41.40;;;6.10;;
51066;SDS011;37112;45.892;-123.962;2023-03-03T05:20:31;29.20;;;3.70;;
51066;SDS011;37112;45.892;-123.962;2023-03-03T05:22:44;33.50;;;5.70;;
51066;SDS011;37112;45.892;-123.962;2023-03-03T05:24:58;23.30;;;5.70;;
51066;SDS011;37112;45.892;-123.962;2023-03-03T05:27:11;58.50;;;6.30;;
51066;SDS011;37112;45.892;-123.962;2023-03-03T05:29:25;41.20;;;7.40;;
51066;SDS011;37112;45.892;-123.962;2023-03-03T05:31:40;38.00;;;6.90;;
51066;SDS011;37112;45.892;-123.962;2023-03-03T05:33:53;36.90;;;6.20;;
51066;SDS011;37112;45.892;-123.962;2023-03-03T05:36:06;22.70;;;4.70;;
51066;SDS011;37112;45.892;-123.962;2023-03-03T05:38:20;23.60;;;5.00;;
51066;SDS011;37112;45.892;-123.962;2023-03-03T05:40:33;30.50;;;4.80;;
51066;SDS011;37112;45.892;-123.962;2023-03-03T05:42:47;34.30;;;7.50;;
51066;SDS011;37112;45.892;-123.962;2023-03-03T05:45:01;56.10;;;9.30;;
51066;SDS011;37112;45.892;-123.962;2023-03-03T05:47:15;48.20;;;8.90;;
51066;SDS011;37112;45.892;-123.962;2023-03-03T05:49:28;46.40;;;9.00;;
51066;SDS011;37112;45.892;-123.962;2023-03-03T05:51:42;34.90;;;6.00;;
51066;SDS011;37112;45.892;-123.962;2023-03-03T05:53:58;72.60;;;9.60;;
51066;SDS011;37112;45.892;-123.962;2023-03-03T05:56:12;63.10;;;9.90;;
51066;SDS011;37112;45.892;-123.962;2023-03-03T05:58:26;42.20;;;8.00;;
51066;SDS011;37112;45.892;-123.962;2023-03-03T06:00:39;57.90;;;8.80;;
51066;SDS011;37112;45.892;-123.962;2023-03-03T06:02:52;36.70;;;6.70;;
51066;SDS011;37112;45.892;-123.962;2023-03-03T06:05:06;35.70;;;7.30;;
51066;SDS011;37112;45.892;-123.962;2023-03-03T06:07:20;49.70;;;9.60;;
51066;SDS011;37112;45.892;-123.962;2023-03-03T06:09:34;36.60;;;8.30;;
51066;SDS011;37112;45.892;-123.962;2023-03-03T06:11:47;45.50;;;9.00;;
51066;SDS011;37112;45.892;-123.962;2023-03-03T06:14:01;64.90;;;11.10;;
51066;SDS011;37112;45.892;-123.962;2023-03-03T06:16:14;41.10;;;7.50;;
51066;SDS011;37112;45.892;-123.962;2023-03-03T06:18:28;58.90;;;9.10;;
51066;SDS011;37112;45.892;-123.962;2023-03-03T06:20:41;47.60;;;10.20;;
51066;SDS011;37112;45.892;-123.962;2023-03-03T06:22:55;59.30;;;9.10;;
51066;SDS011;37112;45.892;-123.962;2023-03-03T06:25:12;61.40;;;12.40;;
51066;SDS011;37112;45.892;-123.962;2023-03-03T06:27:25;46.40;;;8.70;;
51066;SDS011;37112;45.892;-123.962;2023-03-03T06:29:39;41.60;;;7.80;;
51066;SDS011;37112;45.892;-123.962;2023-03-03T06:31:52;33.60;;;7.30;;
51066;SDS011;37112;45.892;-123.962;2023-03-03T06:34:06;40.40;;;6.50;;
51066;SDS011;37112;45.892;-123.962;2023-03-03T06:36:20;61.00;;;11.50;;
51066;SDS011;37112;45.892;-123.962;2023-03-03T06:38:34;49.70;;;7.90;;
51066;SDS011;37112;45.892;-123.962;2023-03-03T06:40:47;43.10;;;7.90;;
51066;SDS011;37112;45.892;-123.962;2023-03-03T06:43:00;38.00;;;8.60;;
51066;SDS011;37112;45.892;-123.962;2023-03-03T06:45:14;62.80;;;10.00;;
51066;SDS011;37112;45.892;-123.962;2023-03-03T06:47:27;60.30;;;10.40;;
51066;SDS011;37112;45.892;-123.962;2023-03-03T06:49:41;61.60;;;11.50;;
51066;SDS011;37112;45.892;-123.962;2023-03-03T06:52:07;63.70;;;11.30;;
51066;SDS011;37112;45.892;-123.962;2023-03-03T06:54:26;82.70;;;11.60;;
51066;SDS011;37112;45.892;-123.962;2023-03-03T06:56:40;60.70;;;11.50;;
51066;SDS011;37112;45.892;-123.962;2023-03-03T06:58:54;49.40;;;10.00;;
51066;SDS011;37112;45.892;-123.962;2023-03-03T07:01:11;57.10;;;8.80;;
51066;SDS011;37112;45.892;-123.962;2023-03-03T07:03:26;40.30;;;7.10;;
51066;SDS011;37112;45.892;-123.962;2023-03-03T07:05:42;53.90;;;10.90;;
51066;SDS011;37112;45.892;-123.962;2023-03-03T07:07:56;56.50;;;7.60;;
51066;SDS011;37112;45.892;-123.962;2023-03-03T07:10:15;56.70;;;11.20;;
51066;SDS011;37112;45.892;-123.962;2023-03-03T07:12:31;59.50;;;8.90;;
51066;SDS011;37112;45.892;-123.962;2023-03-03T07:14:47;53.00;;;10.60;;
51066;SDS011;37112;45.892;-123.962;2023-03-03T07:17:09;84.10;;;10.70;;
51066;SDS011;37112;45.892;-123.962;2023-03-03T07:19:30;61.40;;;10.60;;
51066;SDS011;37112;45.892;-123.962;2023-03-03T07:21:44;46.60;;;9.90;;
51066;SDS011;37112;45.892;-123.962;2023-03-03T07:24:17;39.50;;;5.60;;
51066;SDS011;37112;45.892;-123.962;2023-03-03T07:26:35;57.80;;;8.50;;
51066;SDS011;37112;45.892;-123.962;2023-03-03T07:28:51;46.80;;;6.80;;
51066;SDS011;37112;45.892;-123.962;2023-03-03T07:31:15;31.30;;;7.50;;
51066;SDS011;37112;45.892;-123.962;2023-03-03T07:33:37;53.10;;;8.00;;
51066;SDS011;37112;45.892;-123.962;2023-03-03T07:35:54;45.30;;;8.00;;
51066;SDS011;37112;45.892;-123.962;2023-03-03T07:38:28;77.20;;;11.60;;
51066;SDS011;37112;45.892;-123.962;2023-03-03T07:40:47;57.30;;;10.00;;
51066;SDS011;37112;45.892;-123.962;2023-03-03T07:43:01;23.40;;;4.90;;
51066;SDS011;37112;45.892;-123.962;2023-03-03T07:45:38;55.70;;;8.00;;
51066;SDS011;37112;45.892;-123.962;2023-03-03T07:47:52;61.20;;;9.00;;
51066;SDS011;37112;45.892;-123.962;2023-03-03T07:50:12;65.30;;;12.30;;
51066;SDS011;37112;45.892;-123.962;2023-03-03T07:52:29;60.80;;;14.60;;
51066;SDS011;37112;45.892;-123.962;2023-03-03T07:54:48;66.00;;;9.70;;
51066;SDS011;37112;45.892;-123.962;2023-03-03T07:57:06;58.10;;;9.20;;
51066;SDS011;37112;45.892;-123.962;2023-03-03T07:59:28;61.20;;;10.20;;
51066;SDS011;37112;45.892;-123.962;2023-03-03T08:01:44;50.00;;;8.40;;
51066;SDS011;37112;45.892;-123.962;2023-03-03T08:04:00;51.10;;;9.10;;
51066;SDS011;37112;45.892;-123.962;2023-03-03T08:06:29;33.30;;;8.60;;
51066;SDS011;37112;45.892;-123.962;2023-03-03T08:08:56;44.70;;;7.10;;
51066;SDS011;37112;45.892;-123.962;2023-03-03T08:11:26;69.60;;;12.50;;
51066;SDS011;37112;45.892;-123.962;2023-03-03T08:13:40;55.20;;;9.80;;
51066;SDS011;37112;45.892;-123.962;2023-03-03T08:15:56;65.30;;;10.10;;
51066;SDS011;37112;45.892;-123.962;2023-03-03T08:18:22;53.90;;;10.50;;
51066;SDS011;37112;45.892;-123.962;2023-03-03T08:23:04;37.60;;;6.70;;
51066;SDS011;37112;45.892;-123.962;2023-03-03T08:25:17;21.40;;;4.80;;
51066;SDS011;37112;45.892;-123.962;2023-03-03T08:27:31;56.60;;;8.80;;
51066;SDS011;37112;45.892;-123.962;2023-03-03T08:29:44;39.50;;;8.00;;
51066;SDS011;37112;45.892;-123.962;2023-03-03T08:31:58;60.70;;;8.40;;
51066;SDS011;37112;45.892;-123.962;2023-03-03T08:34:11;77.00;;;13.00;;
51066;SDS011;37112;45.892;-123.962;2023-03-03T08:36:25;63.10;;;9.70;;
51066;SDS011;37112;45.892;-123.962;2023-03-03T08:38:41;55.90;;;10.40;;
51066;SDS011;37112;45.892;-123.962;2023-03-03T08:40:54;46.20;;;10.00;;
51066;SDS011;37112;45.892;-123.962;2023-03-03T08:43:07;52.10;;;10.90;;
51066;SDS011;37112;45.892;-123.962;2023-03-03T08:45:24;74.50;;;13.40;;
51066;SDS011;37112;45.892;-123.962;2023-03-03T08:47:37;51.60;;;12.40;;
51066;SDS011;37112;45.892;-123.962;2023-03-03T08:49:51;47.10;;;9.50;;
51066;SDS011;37112;45.892;-123.962;2023-03-03T08:52:04;66.90;;;11.50;;
51066;SDS011;37112;45.892;-123.962;2023-03-03T08:54:18;62.10;;;11.20;;
51066;SDS011;37112;45.892;-123.962;2023-03-03T08:56:31;49.80;;;10.30;;
51066;SDS011;37112;45.892;-123.962;2023-03-03T08:58:43;59.40;;;11.10;;
51066;SDS011;37112;45.892;-123.962;2023-03-03T09:01:08;57.50;;;13.10;;
51066;SDS011;37112;45.892;-123.962;2023-03-03T09:03:22;66.10;;;11.50;;
51066;SDS011;37112;45.892;-123.962;2023-03-03T09:05:35;49.10;;;11.60;;
51066;SDS011;37112;45.892;-123.962;2023-03-03T09:07:50;62.00;;;10.00;;
51066;SDS011;37112;45.892;-123.962;2023-03-03T09:10:04;30.90;;;6.90;;
51066;SDS011;37112;45.892;-123.962;2023-03-03T09:12:24;64.90;;;12.60;;
51066;SDS011;37112;45.892;-123.962;2023-03-03T09:14:42;70.50;;;15.00;;
51066;SDS011;37112;45.892;-123.962;2023-03-03T09:16:56;53.90;;;10.50;;
51066;SDS011;37112;45.892;-123.962;2023-03-03T09:19:17;45.80;;;7.30;;
51066;SDS011;37112;45.892;-123.962;2023-03-03T09:21:33;63.00;;;9.50;;
51066;SDS011;37112;45.892;-123.962;2023-03-03T09:23:48;67.30;;;11.20;;
51066;SDS011;37112;45.892;-123.962;2023-03-03T09:28:36;50.20;;;7.40;;
51066;SDS011;37112;45.892;-123.962;2023-03-03T09:30:50;40.60;;;8.20;;
51066;SDS011;37112;45.892;-123.962;2023-03-03T09:33:21;41.50;;;6.70;;
51066;SDS011;37112;45.892;-123.962;2023-03-03T09:35:37;27.30;;;5.90;;
51066;SDS011;37112;45.892;-123.962;2023-03-03T09:37:53;45.40;;;9.00;;
51066;SDS011;37112;45.892;-123.962;2023-03-03T09:40:11;51.90;;;7.30;;
51066;SDS011;37112;45.892;-123.962;2023-03-03T09:42:47;40.80;;;9.70;;
51066;SDS011;37112;45.892;-123.962;2023-03-03T09:45:35;49.00;;;10.70;;
51066;SDS011;37112;45.892;-123.962;2023-03-03T09:47:59;39.50;;;10.80;;
51066;SDS011;37112;45.892;-123.962;2023-03-03T09:50:25;35.70;;;5.60;;
51066;SDS011;37112;45.892;-123.962;2023-03-03T09:52:47;61.30;;;10.70;;
51066;SDS011;37112;45.892;-123.962;2023-03-03T09:55:09;49.60;;;10.30;;
51066;SDS011;37112;45.892;-123.962;2023-03-03T09:57:36;39.40;;;7.90;;
51066;SDS011;37112;45.892;-123.962;2023-03-03T10:00:25;47.40;;;8.00;;
51066;SDS011;37112;45.892;-123.962;2023-03-03T10:02:50;53.10;;;9.70;;
51066;SDS011;37112;45.892;-123.962;2023-03-03T10:05:20;60.60;;;10.70;;
51066;SDS011;37112;45.892;-123.962;2023-03-03T10:07:45;43.10;;;8.10;;
51066;SDS011;37112;45.892;-123.962;2023-03-03T10:10:23;68.40;;;10.60;;
51066;SDS011;37112;45.892;-123.962;2023-03-03T10:12:58;39.00;;;7.40;;
51066;SDS011;37112;45.892;-123.962;2023-03-03T10:15:24;42.30;;;8.90;;
51066;SDS011;37112;45.892;-123.962;2023-03-03T10:17:47;51.90;;;9.10;;
51066;SDS011;37112;45.892;-123.962;2023-03-03T10:20:09;37.90;;;7.40;;
51066;SDS011;37112;45.892;-123.962;2023-03-03T10:22:35;39.90;;;7.50;;
51066;SDS011;37112;45.892;-123.962;2023-03-03T10:24:59;45.60;;;8.20;;
51066;SDS011;37112;45.892;-123.962;2023-03-03T10:27:25;41.90;;;9.90;;
51066;SDS011;37112;45.892;-123.962;2023-03-03T10:29:51;46.60;;;8.60;;
51066;SDS011;37112;45.892;-123.962;2023-03-03T10:32:25;50.00;;;9.90;;
51066;SDS011;37112;45.892;-123.962;2023-03-03T10:37:25;52.70;;;9.60;;
51066;SDS011;37112;45.892;-123.962;2023-03-03T10:39:47;48.70;;;8.30;;
51066;SDS011;37112;45.892;-123.962;2023-03-03T10:42:20;56.00;;;8.50;;
51066;SDS011;37112;45.892;-123.962;2023-03-03T10:44:50;41.00;;;8.30;;
51066;SDS011;37112;45.892;-123.962;2023-03-03T10:49:47;47.70;;;9.20;;
51066;SDS011;37112;45.892;-123.962;2023-03-03T10:52:27;73.30;;;11.20;;
51066;SDS011;37112;45.892;-123.962;2023-03-03T10:54:55;79.30;;;15.90;;
51066;SDS011;37112;45.892;-123.962;2023-03-03T10:57:28;65.40;;;11.90;;
51066;SDS011;37112;45.892;-123.962;2023-03-03T10:59:53;41.50;;;6.40;;
51066;SDS011;37112;45.892;-123.962;2023-03-03T11:02:19;43.80;;;8.80;;
51066;SDS011;37112;45.892;-123.962;2023-03-03T11:04:49;71.00;;;11.60;;
51066;SDS011;37112;45.892;-123.962;2023-03-03T11:07:13;62.60;;;10.50;;
51066;SDS011;37112;45.892;-123.962;2023-03-03T11:09:33;33.30;;;7.20;;
51066;SDS011;37112;45.892;-123.962;2023-03-03T11:11:58;46.30;;;10.70;;
51066;SDS011;37112;45.892;-123.962;2023-03-03T11:14:19;50.50;;;8.40;;
51066;SDS011;37112;45.892;-123.962;2023-03-03T11:16:43;42.50;;;9.30;;
51066;SDS011;37112;45.892;-123.962;2023-03-03T11:19:11;29.80;;;5.30;;
51066;SDS011;37112;45.892;-123.962;2023-03-03T11:21:40;35.00;;;7.00;;
51066;SDS011;37112;45.892;-123.962;2023-03-03T11:24:08;37.80;;;5.10;;
51066;SDS011;37112;45.892;-123.962;2023-03-03T11:26:44;60.20;;;9.70;;
51066;SDS011;37112;45.892;-123.962;2023-03-03T11:29:21;37.80;;;7.20;;
51066;SDS011;37112;45.892;-123.962;2023-03-03T11:31:46;33.50;;;6.60;;
51066;SDS011;37112;45.892;-123.962;2023-03-03T11:34:02;23.80;;;4.30;;
51066;SDS011;37112;45.892;-123.962;2023-03-03T11:36:24;24.30;;;4.40;;
51066;SDS011;37112;45.892;-123.962;2023-03-03T11:38:45;22.80;;;5.10;;
51066;SDS011;37112;45.892;-123.962;2023-03-03T11:41:05;41.70;;;5.00;;
51066;SDS011;37112;45.892;-123.962;2023-03-03T11:43:27;25.20;;;4.90;;
51066;SDS011;37112;45.892;-123.962;2023-03-03T11:45:46;42.30;;;6.30;;
51066;SDS011;37112;45.892;-123.962;2023-03-03T11:48:05;27.90;;;6.30;;
51066;SDS011;37112;45.892;-123.962;2023-03-03T11:50:24;20.30;;;6.30;;
51066;SDS011;37112;45.892;-123.962;2023-03-03T11:52:46;34.20;;;5.30;;
51066;SDS011;37112;45.892;-123.962;2023-03-03T11:55:06;34.70;;;7.20;;
51066;SDS011;37112;45.892;-123.962;2023-03-03T11:57:24;34.90;;;6.00;;
51066;SDS011;37112;45.892;-123.962;2023-03-03T11:59:52;26.00;;;5.60;;
51066;SDS011;37112;45.892;-123.962;2023-03-03T12:02:30;41.70;;;8.60;;
51066;SDS011;37112;45.892;-123.962;2023-03-03T12:05:06;64.10;;;8.50;;
51066;SDS011;37112;45.892;-123.962;2023-03-03T12:07:30;41.40;;;7.00;;
51066;SDS011;37112;45.892;-123.962;2023-03-03T12:09:52;41.10;;;7.10;;
51066;SDS011;37112;45.892;-123.962;2023-03-03T12:12:13;42.90;;;6.40;;
51066;SDS011;37112;45.892;-123.962;2023-03-03T12:14:37;45.30;;;8.80;;
51066;SDS011;37112;45.892;-123.962;2023-03-03T12:17:02;31.30;;;6.80;;
51066;SDS011;37112;45.892;-123.962;2023-03-03T12:19:32;17.30;;;4.50;;
51066;SDS011;37112;45.892;-123.962;2023-03-03T12:21:55;25.70;;;6.20;;
51066;SDS011;37112;45.892;-123.962;2023-03-03T12:24:28;36.70;;;6.90;;
51066;SDS011;37112;45.892;-123.962;2023-03-03T12:26:53;38.60;;;4.80;;
51066;SDS011;37112;45.892;-123.962;2023-03-03T12:29:22;26.90;;;4.80;;
51066;SDS011;37112;45.892;-123.962;2023-03-03T12:31:47;22.20;;;4.10;;
51066;SDS011;37112;45.892;-123.962;2023-03-03T12:34:07;37.90;;;6.80;;
51066;SDS011;37112;45.892;-123.962;2023-03-03T12:36:31;34.40;;;6.90;;
51066;SDS011;37112;45.892;-123.962;2023-03-03T12:39:04;38.80;;;4.60;;
51066;SDS011;37112;45.892;-123.962;2023-03-03T12:41:39;31.40;;;5.30;;
51066;SDS011;37112;45.892;-123.962;2023-03-03T12:44:00;33.10;;;6.40;;
51066;SDS011;37112;45.892;-123.962;2023-03-03T12:46:18;48.80;;;7.20;;
51066;SDS011;37112;45.892;-123.962;2023-03-03T12:48:37;23.40;;;5.40;;
51066;SDS011;37112;45.892;-123.962;2023-03-03T12:50:54;18.80;;;3.90;;
51066;SDS011;37112;45.892;-123.962;2023-03-03T12:53:23;24.50;;;5.50;;
51066;SDS011;37112;45.892;-123.962;2023-03-03T12:55:46;14.70;;;3.30;;
51066;SDS011;37112;45.892;-123.962;2023-03-03T12:58:03;4.90;;;1.00;;
51066;SDS011;37112;45.892;-123.962;2023-03-03T13:00:26;14.80;;;3.20;;
51066;SDS011;37112;45.892;-123.962;2023-03-03T13:02:51;23.70;;;3.40;;
51066;SDS011;37112;45.892;-123.962;2023-03-03T13:05:18;35.50;;;5.40;;
51066;SDS011;37112;45.892;-123.962;2023-03-03T13:07:37;48.00;;;6.30;;
51066;SDS011;37112;45.892;-123.962;2023-03-03T13:10:03;47.40;;;8.10;;
51066;SDS011;37112;45.892;-123.962;2023-03-03T13:12:29;41.20;;;6.10;;
51066;SDS011;37112;45.892;-123.962;2023-03-03T13:14:48;43.20;;;5.10;;
51066;SDS011;37112;45.892;-123.962;2023-03-03T13:17:10;36.20;;;7.60;;